Galt, MO

7:23 PM CDT on September 23, 2014 (GMT -0500)
Lamoni Municipal | Change Station
CLOSE
Current Station
Airport
Location: Lamoni,
Elevation: 1132 ft
Nearby Weather Stations

Elev 1132 ft 40.63 °N, 93.90 °W | Updated 30 minutes ago

Partly Cloudy
Partly Cloudy
65 °F
Feels Like 65 °F
N
8
Wind Variable Wind from SE

Today
High -- | Low -- °F
--% Chance of Precip.
Yesterday
High -- | Low -- °F
Precip. -- in
7:02 AM 7:09 PM
Waning Crescent, 0% visible
Pressure 30.15 in
Visibility 10.0 miles
Clouds Scattered Clouds 12000 ft
Dew Point 53 °F
Humidity 65%
Rainfall 0.00 in
Snow Depth Not available.
UV 0 out of 12
Pollen 4.30 out of 12
Air Quality Not available.
Flu Activity Not available.
METAR KLWD 232353Z AUTO 14007KT 10SM SCT120 18/12 A3015 RMK AO2 SLP209 T01830117 10211 20183 58013

More Conditions Fewer Conditions

Pressure 30.15 in
Visibility 10.0 miles
Clouds Scattered Clouds 12000 ft
Dew Point 53 °F
Humidity 65%
Rainfall 0.00 in
Snow Depth Not available.
UV 0 out of 12
Pollen 4.30 out of 12
Air Quality Not available.
Flu Activity Not available.
METAR KLWD 232353Z AUTO 14007KT 10SM SCT120 18/12 A3015 RMK AO2 SLP209 T01830117 10211 20183 58013

More Conditions Fewer Conditions

10-Day Weather Forecast

Almanac

Astronomy

Sep. 23, 2014 Rise Set
Actual Time 7:02 AM CDT 7:09 PM CDT
Civil Twilight 6:35 AM CDT 7:36 PM CDT
Nautical Twilight 6:03 AM CDT 8:07 PM CDT
Astronomical Twilight 5:31 AM CDT 8:39 PM CDT
Moon 6:27 AM CDT (9/23) 6:48 PM CDT (9/23)
Length of Visible Light 13h 00m
Length of Day
12h 06m
Tomorrow will be 2m 37s shorter.
Waning Crescent, 0% of the Moon is Illuminated
Today
Waning Crescent
Sep 24
New
Oct 1
First Quarter
Oct 8
Full
Oct 15
Last Quarter

Today's Extremes

State Highs State Lows

Community

WunderPhotos

Upload Photos

1,755,828 photos uploaded!

WunderBlogs® & News

Nearby

Snow Depth

Station Depth Elevation
No new snow has been reported.

Earthquake Activity

City Distance Mag. Time & Date
No recent earthquake activity has been reported nearby.
Minimum magnitude displayed is 2.5.

Coastal Water Temperatures

Place Temperature
No Stations Reporting

Nearby Weather Stations